createdAt,value
2023-06-17T15:24:45.569Z,4.43
2023-06-17T15:27:31.102Z,7.47
2023-06-17T15:30:16.496Z,5.82
2023-06-17T15:33:04.728Z,3.83
2023-06-17T15:35:50.150Z,4.78
2023-06-17T15:38:35.596Z,3.58
2023-06-17T15:41:21.652Z,2.13
2023-06-17T15:44:07.052Z,1.77
2023-06-17T15:46:52.501Z,1.45
2023-06-17T15:49:41.423Z,4.03
2023-06-17T15:52:28.662Z,3.33
2023-06-17T15:55:14.161Z,4.03
2023-06-17T15:57:59.366Z,2.90
2023-06-17T16:00:45.246Z,3.85
2023-06-17T16:03:31.938Z,4.82
2023-06-17T16:06:17.512Z,6.68
2023-06-17T16:09:02.903Z,5.20
2023-06-17T16:11:48.103Z,4.03
2023-06-17T16:14:34.072Z,5.07
2023-06-17T16:17:19.728Z,8.25
2023-06-17T16:20:05.896Z,5.18
2023-06-17T16:22:51.769Z,5.20
2023-06-17T16:25:49.844Z,12.48
2023-06-17T16:28:41.013Z,7.30
2023-06-17T16:31:26.369Z,8.43
2023-06-17T16:34:13.030Z,9.75
2023-06-17T16:36:58.780Z,9.25
2023-06-17T16:39:44.233Z,13.00
2023-06-17T16:42:34.047Z,14.70
2023-06-17T16:45:19.794Z,15.25
2023-06-17T16:48:07.316Z,10.95
2023-06-17T16:50:54.596Z,16.65
2023-06-17T16:53:40.089Z,14.07
2023-06-17T16:56:25.648Z,14.38
2023-06-17T16:59:12.015Z,17.25
2023-06-17T17:01:57.905Z,21.83
2023-06-17T17:04:45.537Z,18.65
2023-06-17T17:07:34.217Z,17.25
2023-06-17T17:10:24.444Z,21.15
2023-06-17T17:13:10.100Z,22.20
2023-06-17T17:15:56.212Z,16.38
2023-06-17T17:18:41.841Z,17.00
2023-06-17T17:21:27.988Z,16.45
2023-06-17T17:24:13.661Z,19.52
2023-06-17T17:26:59.536Z,17.60
2023-06-17T17:29:44.942Z,14.77
2023-06-17T17:32:30.364Z,20.08
2023-06-17T17:35:16.089Z,17.20
2023-06-17T17:38:01.597Z,17.00
2023-06-17T17:40:47.043Z,19.65
2023-06-17T17:43:32.376Z,21.92
2023-06-17T17:46:17.742Z,23.33
2023-06-17T17:49:03.648Z,23.02
2023-06-17T17:51:49.141Z,16.60
2023-06-17T17:54:34.456Z,17.23
2023-06-17T17:57:19.861Z,17.85
2023-06-17T18:00:05.910Z,17.05
2023-06-17T18:02:57.075Z,21.33
2023-06-17T18:05:42.928Z,19.60
2023-06-17T18:08:28.217Z,20.52
2023-06-17T18:11:13.614Z,29.38
2023-06-17T18:13:59.510Z,21.98
2023-06-17T18:16:45.035Z,18.70
2023-06-17T18:19:30.421Z,22.67
2023-06-17T18:22:16.055Z,22.73
2023-06-17T18:25:01.887Z,17.15
2023-06-17T18:27:47.341Z,18.25
2023-06-17T18:30:32.802Z,20.95
2023-06-17T18:33:18.283Z,18.98
2023-06-17T18:36:03.963Z,20.88
2023-06-17T18:38:49.708Z,18.80
2023-06-17T18:41:35.073Z,15.32
2023-06-17T18:44:20.615Z,17.23
2023-06-17T18:47:06.386Z,22.20
2023-06-17T18:49:51.833Z,17.60
2023-06-17T18:52:37.261Z,17.08
2023-06-17T18:55:22.497Z,14.75
2023-06-17T18:58:07.999Z,18.98
2023-06-17T19:00:53.442Z,14.73
2023-06-17T19:03:38.886Z,15.25
2023-06-17T19:06:24.683Z,16.65
2023-06-17T19:09:09.936Z,14.88
2023-06-17T19:12:00.615Z,15.75
2023-06-17T19:14:47.094Z,18.42
2023-06-17T19:17:32.765Z,17.50
2023-06-17T19:20:18.391Z,18.38
2023-06-17T19:23:03.947Z,15.18
2023-06-17T19:25:49.269Z,26.35
2023-06-17T19:28:35.248Z,21.17
2023-06-17T19:31:22.436Z,21.83
2023-06-17T19:34:07.919Z,24.00
2023-06-17T19:36:53.492Z,23.13
2023-06-17T19:39:39.087Z,21.75
2023-06-17T19:42:24.616Z,22.98
2023-06-17T19:45:10.967Z,22.17
2023-06-17T19:48:02.377Z,19.48
2023-06-17T19:50:47.833Z,19.17
2023-06-17T19:53:33.277Z,21.15
2023-06-17T19:56:19.645Z,23.73
2023-06-17T19:59:05.357Z,24.00
2023-06-17T20:01:51.561Z,19.85
2023-06-17T20:04:36.771Z,25.55
2023-06-17T20:07:22.196Z,27.92
2023-06-17T20:10:07.975Z,24.75
2023-06-17T20:12:58.826Z,21.92
2023-06-17T20:15:44.542Z,29.10
2023-06-17T20:18:29.836Z,25.02
2023-06-17T20:21:17.123Z,27.27
2023-06-17T20:24:02.551Z,29.17
2023-06-17T20:26:47.837Z,28.50
2023-06-17T20:29:35.276Z,27.40
2023-06-17T20:32:21.071Z,29.45
2023-06-17T20:35:07.158Z,27.63
2023-06-17T20:37:53.131Z,31.02
2023-06-17T20:40:38.814Z,33.33
2023-06-17T20:43:24.076Z,29.67
2023-06-17T20:46:09.692Z,26.00
2023-06-17T20:48:54.970Z,27.58
2023-06-17T20:51:40.670Z,27.75
2023-06-17T20:54:27.526Z,29.27
2023-06-17T20:57:13.102Z,25.35
2023-06-17T20:59:58.526Z,25.02
2023-06-17T21:02:43.879Z,24.52
2023-06-17T21:05:29.553Z,25.35
2023-06-17T21:08:15.077Z,21.52
2023-06-17T21:11:00.383Z,27.73
2023-06-17T21:13:45.722Z,26.05
2023-06-17T21:16:31.396Z,27.10
2023-06-17T21:19:16.801Z,32.00
2023-06-17T21:22:02.212Z,31.55
2023-06-17T21:24:47.787Z,23.25
2023-06-17T21:27:33.161Z,26.30
2023-06-17T21:30:18.595Z,26.88
2023-06-17T21:33:04.244Z,28.02
2023-06-17T21:35:50.171Z,26.25
2023-06-17T21:38:35.762Z,27.77
2023-06-17T21:41:21.435Z,26.58
2023-06-17T21:44:06.864Z,27.65
2023-06-17T21:46:52.347Z,35.40
2023-06-17T21:49:37.779Z,33.70
2023-06-17T21:52:23.134Z,30.83
2023-06-17T21:55:09.198Z,27.83
2023-06-17T21:57:54.585Z,26.33
2023-06-17T22:00:40.688Z,31.80
2023-06-17T22:03:27.009Z,22.52
2023-06-17T22:06:12.799Z,23.90
2023-06-17T22:08:58.643Z,27.55
2023-06-17T22:11:44.111Z,23.27
2023-06-17T22:14:40.138Z,23.25
2023-06-17T22:17:26.958Z,19.45
2023-06-17T22:20:12.751Z,26.25
2023-06-17T22:22:58.246Z,31.88
2023-06-17T22:25:44.248Z,21.50
2023-06-17T22:28:30.092Z,25.83
2023-06-17T22:31:16.193Z,23.20
2023-06-17T22:34:01.559Z,23.83
2023-06-17T22:36:46.930Z,27.23
2023-06-17T22:39:33.281Z,25.05
2023-06-17T22:42:18.701Z,25.33
2023-06-17T22:45:04.335Z,27.50
2023-06-17T22:47:49.978Z,23.30
2023-06-17T22:50:35.673Z,20.27
2023-06-17T22:53:21.014Z,26.00
2023-06-17T22:56:06.612Z,28.13
2023-06-17T22:58:52.115Z,34.47
2023-06-17T23:01:37.346Z,29.02
2023-06-17T23:04:22.624Z,37.08
2023-06-17T23:07:07.963Z,36.88
2023-06-17T23:09:53.567Z,27.27
2023-06-17T23:12:38.866Z,30.25
2023-06-17T23:15:24.219Z,28.33
2023-06-17T23:18:09.542Z,27.55
2023-06-17T23:20:55.264Z,29.38
2023-06-17T23:23:40.615Z,29.23
2023-06-17T23:26:27.855Z,31.35
2023-06-17T23:29:13.501Z,28.98
2023-06-17T23:31:58.987Z,32.83
2023-06-17T23:34:44.884Z,31.88
2023-06-17T23:37:30.350Z,36.85
2023-06-17T23:40:16.018Z,34.30
2023-06-17T23:43:01.283Z,28.05
2023-06-17T23:45:46.742Z,26.60
2023-06-17T23:48:32.348Z,28.25
2023-06-17T23:51:18.389Z,29.15
2023-06-17T23:54:03.979Z,31.45
2023-06-17T23:56:49.680Z,27.60
2023-06-17T23:59:35.132Z,29.95
